CheckWX is a tool to help pilots better visualize weather data.  It is not intended as a substitute for an official pre-flight weather briefing.

06:28:24 UTC

KJAN TAF
Jackson-Medgar Wiley Evers International Airport
Jackson, Mississippi, USA
KJAN 190523Z 1906/2006 17005KT P6SM SKC FM191600 16007KT P6SM VCTS BKN050CB

Sep-19@
06:00 UTC

Sep-19 @ 06:00 UTC

Sep-19@
16:00 UTC

Sep-19 @ 16:00 UTC

KJAN 190523Z 1906/2006 17005KT P6SM SKC
Wind
  • 170° at 5 KTS
Cloud Levels
  • Clear skies

Sep-19@
16:00 UTC

Sep-19 @ 16:00 UTC

Sep-20@
06:00 UTC

Sep-20 @ 06:00 UTC

FM191600 16007KT P6SM VCTS BKN050CB

From

From Standard forecast or significant change

Wind
  • 160° at 7 KTS
Conditions
Area Thunderstorm
Cloud Levels
  • Broken at 5,000' AGL